sensor_id;sensor_type;location;lat;lon;timestamp;temperature;humidity
4602;DHT22;2313;48.552;9.370;2023-06-04T00:02:13;16.00;99.90
4602;DHT22;2313;48.552;9.370;2023-06-04T00:04:39;16.00;99.90
4602;DHT22;2313;48.552;9.370;2023-06-04T00:07:05;16.20;99.90
4602;DHT22;2313;48.552;9.370;2023-06-04T00:09:31;16.30;99.90
4602;DHT22;2313;48.552;9.370;2023-06-04T00:11:56;16.30;99.90
4602;DHT22;2313;48.552;9.370;2023-06-04T00:14:23;16.20;99.80
4602;DHT22;2313;48.552;9.370;2023-06-04T00:16:48;16.20;99.90
4602;DHT22;2313;48.552;9.370;2023-06-04T00:19:14;16.20;99.40
4602;DHT22;2313;48.552;9.370;2023-06-04T00:21:40;16.20;99.80
4602;DHT22;2313;48.552;9.370;2023-06-04T00:24:06;16.20;98.80
4602;DHT22;2313;48.552;9.370;2023-06-04T00:26:31;16.00;99.90
4602;DHT22;2313;48.552;9.370;2023-06-04T00:28:57;15.90;99.90
4602;DHT22;2313;48.552;9.370;2023-06-04T00:31:23;15.80;99.90
4602;DHT22;2313;48.552;9.370;2023-06-04T00:33:49;15.80;99.90
4602;DHT22;2313;48.552;9.370;2023-06-04T00:36:14;15.50;99.90
4602;DHT22;2313;48.552;9.370;2023-06-04T00:38:40;15.40;99.90
4602;DHT22;2313;48.552;9.370;2023-06-04T00:41:06;15.30;99.90
4602;DHT22;2313;48.552;9.370;2023-06-04T00:43:31;15.20;99.90
4602;DHT22;2313;48.552;9.370;2023-06-04T00:45:58;15.10;99.90
4602;DHT22;2313;48.552;9.370;2023-06-04T00:48:24;15.00;99.90
4602;DHT22;2313;48.552;9.370;2023-06-04T00:50:52;15.10;99.90
4602;DHT22;2313;48.552;9.370;2023-06-04T00:53:18;15.00;99.90
4602;DHT22;2313;48.552;9.370;2023-06-04T00:55:45;14.90;99.90
4602;DHT22;2313;48.552;9.370;2023-06-04T00:58:10;14.90;99.90
4602;DHT22;2313;48.552;9.370;2023-06-04T01:00:37;14.80;99.90
4602;DHT22;2313;48.552;9.370;2023-06-04T01:03:07;14.80;99.90
4602;DHT22;2313;48.552;9.370;2023-06-04T01:05:51;14.80;99.90
4602;DHT22;2313;48.552;9.370;2023-06-04T01:08:21;14.70;99.90
4602;DHT22;2313;48.552;9.370;2023-06-04T01:10:51;14.60;99.90
4602;DHT22;2313;48.552;9.370;2023-06-04T01:13:17;14.50;99.90
4602;DHT22;2313;48.552;9.370;2023-06-04T01:15:43;14.30;99.90
4602;DHT22;2313;48.552;9.370;2023-06-04T01:18:08;14.20;99.90
4602;DHT22;2313;48.552;9.370;2023-06-04T01:20:46;14.20;99.90
4602;DHT22;2313;48.552;9.370;2023-06-04T01:26:11;14.30;99.90
4602;DHT22;2313;48.552;9.370;2023-06-04T01:28:38;14.20;99.90
4602;DHT22;2313;48.552;9.370;2023-06-04T01:31:05;14.20;99.90
4602;DHT22;2313;48.552;9.370;2023-06-04T01:33:33;14.20;99.90
4602;DHT22;2313;48.552;9.370;2023-06-04T01:35:59;14.10;99.90
4602;DHT22;2313;48.552;9.370;2023-06-04T01:38:26;13.90;99.90
4602;DHT22;2313;48.552;9.370;2023-06-04T01:40:52;13.90;99.90
4602;DHT22;2313;48.552;9.370;2023-06-04T01:43:28;13.90;99.90
4602;DHT22;2313;48.552;9.370;2023-06-04T01:45:54;13.80;99.90
4602;DHT22;2313;48.552;9.370;2023-06-04T01:48:21;13.70;99.90
4602;DHT22;2313;48.552;9.370;2023-06-04T01:50:47;13.70;99.90
4602;DHT22;2313;48.552;9.370;2023-06-04T01:53:13;13.60;99.90
4602;DHT22;2313;48.552;9.370;2023-06-04T01:55:38;13.60;99.90
4602;DHT22;2313;48.552;9.370;2023-06-04T01:58:04;13.50;99.90
4602;DHT22;2313;48.552;9.370;2023-06-04T02:00:30;13.50;99.90
4602;DHT22;2313;48.552;9.370;2023-06-04T02:02:55;13.50;99.90
4602;DHT22;2313;48.552;9.370;2023-06-04T02:05:22;13.50;99.90
4602;DHT22;2313;48.552;9.370;2023-06-04T02:07:48;13.50;99.90
4602;DHT22;2313;48.552;9.370;2023-06-04T02:10:18;13.40;99.90
4602;DHT22;2313;48.552;9.370;2023-06-04T02:13:01;13.40;99.90
4602;DHT22;2313;48.552;9.370;2023-06-04T02:15:32;13.40;99.90
4602;DHT22;2313;48.552;9.370;2023-06-04T02:18:10;13.20;99.90
4602;DHT22;2313;48.552;9.370;2023-06-04T02:20:38;13.20;99.90
4602;DHT22;2313;48.552;9.370;2023-06-04T02:23:03;13.20;99.90
4602;DHT22;2313;48.552;9.370;2023-06-04T02:25:29;13.00;99.90
4602;DHT22;2313;48.552;9.370;2023-06-04T02:27:55;13.00;99.90
4602;DHT22;2313;48.552;9.370;2023-06-04T02:30:20;13.00;99.90
4602;DHT22;2313;48.552;9.370;2023-06-04T02:32:46;12.90;99.90
4602;DHT22;2313;48.552;9.370;2023-06-04T02:35:16;12.90;99.90
4602;DHT22;2313;48.552;9.370;2023-06-04T02:37:43;12.90;99.90
4602;DHT22;2313;48.552;9.370;2023-06-04T02:40:09;12.90;99.90
4602;DHT22;2313;48.552;9.370;2023-06-04T02:42:35;12.80;99.90
4602;DHT22;2313;48.552;9.370;2023-06-04T02:45:01;12.80;99.90
4602;DHT22;2313;48.552;9.370;2023-06-04T02:47:27;12.80;99.90
4602;DHT22;2313;48.552;9.370;2023-06-04T02:49:53;12.50;99.90
4602;DHT22;2313;48.552;9.370;2023-06-04T02:52:18;12.50;99.90
4602;DHT22;2313;48.552;9.370;2023-06-04T02:54:44;12.50;99.90
4602;DHT22;2313;48.552;9.370;2023-06-04T02:57:09;12.50;99.90
4602;DHT22;2313;48.552;9.370;2023-06-04T02:59:35;12.40;99.90
4602;DHT22;2313;48.552;9.370;2023-06-04T03:02:02;12.50;99.90
4602;DHT22;2313;48.552;9.370;2023-06-04T03:04:27;12.50;99.90
4602;DHT22;2313;48.552;9.370;2023-06-04T03:07:00;12.40;99.90
4602;DHT22;2313;48.552;9.370;2023-06-04T03:09:26;12.40;99.90
4602;DHT22;2313;48.552;9.370;2023-06-04T03:11:51;12.40;99.90
4602;DHT22;2313;48.552;9.370;2023-06-04T03:14:17;12.40;99.90
4602;DHT22;2313;48.552;9.370;2023-06-04T03:16:43;12.40;99.90
4602;DHT22;2313;48.552;9.370;2023-06-04T03:19:10;12.30;99.90
4602;DHT22;2313;48.552;9.370;2023-06-04T03:21:37;12.30;99.90
4602;DHT22;2313;48.552;9.370;2023-06-04T03:24:06;12.30;99.90
4602;DHT22;2313;48.552;9.370;2023-06-04T03:26:32;12.20;99.90
4602;DHT22;2313;48.552;9.370;2023-06-04T03:28:57;12.20;99.90
4602;DHT22;2313;48.552;9.370;2023-06-04T03:31:24;12.20;99.90
4602;DHT22;2313;48.552;9.370;2023-06-04T03:33:49;12.30;99.90
4602;DHT22;2313;48.552;9.370;2023-06-04T03:36:15;12.30;99.90
4602;DHT22;2313;48.552;9.370;2023-06-04T03:38:41;12.20;99.90
4602;DHT22;2313;48.552;9.370;2023-06-04T03:41:07;12.20;99.90
4602;DHT22;2313;48.552;9.370;2023-06-04T03:43:32;12.20;99.90
4602;DHT22;2313;48.552;9.370;2023-06-04T03:45:58;12.20;99.90
4602;DHT22;2313;48.552;9.370;2023-06-04T03:48:23;12.10;99.90
4602;DHT22;2313;48.552;9.370;2023-06-04T03:50:49;12.10;99.90
4602;DHT22;2313;48.552;9.370;2023-06-04T03:53:15;12.10;99.90
4602;DHT22;2313;48.552;9.370;2023-06-04T03:55:40;12.10;99.90
4602;DHT22;2313;48.552;9.370;2023-06-04T03:58:06;12.10;99.90
4602;DHT22;2313;48.552;9.370;2023-06-04T04:00:34;12.10;99.90
4602;DHT22;2313;48.552;9.370;2023-06-04T04:03:00;12.10;99.90
4602;DHT22;2313;48.552;9.370;2023-06-04T04:05:25;12.10;99.90
4602;DHT22;2313;48.552;9.370;2023-06-04T04:07:51;12.20;99.90
4602;DHT22;2313;48.552;9.370;2023-06-04T04:10:17;12.40;99.90
4602;DHT22;2313;48.552;9.370;2023-06-04T04:12:42;12.30;99.90
4602;DHT22;2313;48.552;9.370;2023-06-04T04:15:08;12.50;99.90
4602;DHT22;2313;48.552;9.370;2023-06-04T04:17:34;12.40;99.90
4602;DHT22;2313;48.552;9.370;2023-06-04T04:19:59;12.40;99.90
4602;DHT22;2313;48.552;9.370;2023-06-04T04:22:25;12.40;99.90
4602;DHT22;2313;48.552;9.370;2023-06-04T04:24:50;12.40;99.90
4602;DHT22;2313;48.552;9.370;2023-06-04T04:27:16;12.40;99.90
4602;DHT22;2313;48.552;9.370;2023-06-04T04:29:42;12.40;99.90
4602;DHT22;2313;48.552;9.370;2023-06-04T04:32:09;12.60;99.90
4602;DHT22;2313;48.552;9.370;2023-06-04T04:34:38;12.60;99.90
4602;DHT22;2313;48.552;9.370;2023-06-04T04:37:08;12.70;99.90
4602;DHT22;2313;48.552;9.370;2023-06-04T04:39:35;12.90;99.90
4602;DHT22;2313;48.552;9.370;2023-06-04T04:42:02;12.80;99.90
4602;DHT22;2313;48.552;9.370;2023-06-04T04:44:28;12.90;99.90
4602;DHT22;2313;48.552;9.370;2023-06-04T04:46:53;12.90;99.90
4602;DHT22;2313;48.552;9.370;2023-06-04T04:49:19;13.00;99.90
4602;DHT22;2313;48.552;9.370;2023-06-04T04:51:45;13.20;99.90
4602;DHT22;2313;48.552;9.370;2023-06-04T04:54:10;13.20;99.90
4602;DHT22;2313;48.552;9.370;2023-06-04T04:56:36;13.30;99.90
4602;DHT22;2313;48.552;9.370;2023-06-04T04:59:02;13.40;99.90
4602;DHT22;2313;48.552;9.370;2023-06-04T05:01:27;13.60;99.90
4602;DHT22;2313;48.552;9.370;2023-06-04T05:03:53;13.60;99.90
4602;DHT22;2313;48.552;9.370;2023-06-04T05:06:19;13.70;99.90
4602;DHT22;2313;48.552;9.370;2023-06-04T05:08:45;13.70;99.90
4602;DHT22;2313;48.552;9.370;2023-06-04T05:11:10;13.90;99.90
4602;DHT22;2313;48.552;9.370;2023-06-04T05:13:36;14.10;99.90
4602;DHT22;2313;48.552;9.370;2023-06-04T05:16:02;14.30;99.90
4602;DHT22;2313;48.552;9.370;2023-06-04T05:18:36;14.30;99.90
4602;DHT22;2313;48.552;9.370;2023-06-04T05:21:06;14.50;99.90
4602;DHT22;2313;48.552;9.370;2023-06-04T05:23:32;14.60;99.90
4602;DHT22;2313;48.552;9.370;2023-06-04T05:26:00;14.80;99.90
4602;DHT22;2313;48.552;9.370;2023-06-04T05:28:26;14.90;99.90
4602;DHT22;2313;48.552;9.370;2023-06-04T05:30:52;15.10;99.90
4602;DHT22;2313;48.552;9.370;2023-06-04T05:33:24;15.20;99.90
4602;DHT22;2313;48.552;9.370;2023-06-04T05:35:50;15.40;99.90
4602;DHT22;2313;48.552;9.370;2023-06-04T05:38:17;15.60;99.90
4602;DHT22;2313;48.552;9.370;2023-06-04T05:40:46;15.70;99.90
4602;DHT22;2313;48.552;9.370;2023-06-04T05:43:12;15.70;99.90
4602;DHT22;2313;48.552;9.370;2023-06-04T05:45:38;15.80;99.90
4602;DHT22;2313;48.552;9.370;2023-06-04T05:48:04;15.90;99.90
4602;DHT22;2313;48.552;9.370;2023-06-04T05:50:31;16.00;99.90
4602;DHT22;2313;48.552;9.370;2023-06-04T05:52:56;16.00;99.90
4602;DHT22;2313;48.552;9.370;2023-06-04T05:55:22;16.10;99.90
4602;DHT22;2313;48.552;9.370;2023-06-04T05:57:48;16.10;99.90
4602;DHT22;2313;48.552;9.370;2023-06-04T06:00:17;16.10;99.90
4602;DHT22;2313;48.552;9.370;2023-06-04T06:02:43;16.30;99.90
4602;DHT22;2313;48.552;9.370;2023-06-04T06:05:09;16.30;99.90
4602;DHT22;2313;48.552;9.370;2023-06-04T06:07:35;16.40;99.90
4602;DHT22;2313;48.552;9.370;2023-06-04T06:10:01;16.70;99.90
4602;DHT22;2313;48.552;9.370;2023-06-04T06:12:27;16.70;99.90
4602;DHT22;2313;48.552;9.370;2023-06-04T06:14:52;16.70;99.90
4602;DHT22;2313;48.552;9.370;2023-06-04T06:17:18;16.90;99.90
4602;DHT22;2313;48.552;9.370;2023-06-04T06:19:44;17.00;99.90
4602;DHT22;2313;48.552;9.370;2023-06-04T06:22:10;17.10;99.90
4602;DHT22;2313;48.552;9.370;2023-06-04T06:24:35;17.20;99.90
4602;DHT22;2313;48.552;9.370;2023-06-04T06:27:01;17.20;99.90
4602;DHT22;2313;48.552;9.370;2023-06-04T06:29:27;17.30;99.80
4602;DHT22;2313;48.552;9.370;2023-06-04T06:31:52;17.40;99.60
4602;DHT22;2313;48.552;9.370;2023-06-04T06:34:18;17.40;98.10
4602;DHT22;2313;48.552;9.370;2023-06-04T06:36:43;17.50;98.60
4602;DHT22;2313;48.552;9.370;2023-06-04T06:39:09;17.50;96.90
4602;DHT22;2313;48.552;9.370;2023-06-04T06:41:36;17.80;96.10
4602;DHT22;2313;48.552;9.370;2023-06-04T06:44:04;17.70;95.50
4602;DHT22;2313;48.552;9.370;2023-06-04T06:46:29;17.90;96.30
4602;DHT22;2313;48.552;9.370;2023-06-04T06:48:55;18.00;95.60
4602;DHT22;2313;48.552;9.370;2023-06-04T06:51:20;18.10;94.60
4602;DHT22;2313;48.552;9.370;2023-06-04T06:53:46;18.10;95.60
4602;DHT22;2313;48.552;9.370;2023-06-04T06:56:14;18.20;94.60
4602;DHT22;2313;48.552;9.370;2023-06-04T06:58:40;18.20;94.60
4602;DHT22;2313;48.552;9.370;2023-06-04T07:01:05;18.20;94.50
4602;DHT22;2313;48.552;9.370;2023-06-04T07:03:31;18.50;95.50
4602;DHT22;2313;48.552;9.370;2023-06-04T07:05:57;18.50;95.00
4602;DHT22;2313;48.552;9.370;2023-06-04T07:08:23;18.50;94.30
4602;DHT22;2313;48.552;9.370;2023-06-04T07:10:48;18.50;93.20
4602;DHT22;2313;48.552;9.370;2023-06-04T07:13:14;18.50;93.50
4602;DHT22;2313;48.552;9.370;2023-06-04T07:15:39;18.50;92.70
4602;DHT22;2313;48.552;9.370;2023-06-04T07:18:05;18.60;92.20
4602;DHT22;2313;48.552;9.370;2023-06-04T07:20:30;18.70;94.30
4602;DHT22;2313;48.552;9.370;2023-06-04T07:22:56;18.80;94.70
4602;DHT22;2313;48.552;9.370;2023-06-04T07:25:22;18.90;95.70
4602;DHT22;2313;48.552;9.370;2023-06-04T07:27:49;19.00;95.70
4602;DHT22;2313;48.552;9.370;2023-06-04T07:30:17;19.10;96.90
4602;DHT22;2313;48.552;9.370;2023-06-04T07:32:50;19.00;96.40
4602;DHT22;2313;48.552;9.370;2023-06-04T07:35:16;19.10;97.60
4602;DHT22;2313;48.552;9.370;2023-06-04T07:37:42;19.10;96.90
4602;DHT22;2313;48.552;9.370;2023-06-04T07:40:10;19.20;97.20
4602;DHT22;2313;48.552;9.370;2023-06-04T07:42:36;19.30;97.30
4602;DHT22;2313;48.552;9.370;2023-06-04T07:45:03;19.30;96.80
4602;DHT22;2313;48.552;9.370;2023-06-04T07:47:28;19.30;96.50
4602;DHT22;2313;48.552;9.370;2023-06-04T07:49:54;19.50;96.90
4602;DHT22;2313;48.552;9.370;2023-06-04T07:52:20;19.60;95.90
4602;DHT22;2313;48.552;9.370;2023-06-04T07:54:45;19.50;94.90
4602;DHT22;2313;48.552;9.370;2023-06-04T07:57:11;19.60;95.50
4602;DHT22;2313;48.552;9.370;2023-06-04T07:59:37;19.80;96.10
4602;DHT22;2313;48.552;9.370;2023-06-04T08:02:02;19.90;94.60
4602;DHT22;2313;48.552;9.370;2023-06-04T08:04:28;20.00;95.00
4602;DHT22;2313;48.552;9.370;2023-06-04T08:06:53;20.20;94.40
4602;DHT22;2313;48.552;9.370;2023-06-04T08:09:20;20.40;94.60
4602;DHT22;2313;48.552;9.370;2023-06-04T08:11:46;20.40;93.60
4602;DHT22;2313;48.552;9.370;2023-06-04T08:14:11;20.60;93.40
4602;DHT22;2313;48.552;9.370;2023-06-04T08:16:38;20.70;92.70
4602;DHT22;2313;48.552;9.370;2023-06-04T08:19:04;20.70;92.60
4602;DHT22;2313;48.552;9.370;2023-06-04T08:21:30;20.80;92.30
4602;DHT22;2313;48.552;9.370;2023-06-04T08:23:55;20.90;92.40
4602;DHT22;2313;48.552;9.370;2023-06-04T08:26:21;21.10;92.30
4602;DHT22;2313;48.552;9.370;2023-06-04T08:28:50;21.30;91.90
4602;DHT22;2313;48.552;9.370;2023-06-04T08:31:16;21.40;91.50
4602;DHT22;2313;48.552;9.370;2023-06-04T08:33:44;21.60;91.50
4602;DHT22;2313;48.552;9.370;2023-06-04T08:36:10;21.70;90.90
4602;DHT22;2313;48.552;9.370;2023-06-04T08:38:35;21.90;89.50
4602;DHT22;2313;48.552;9.370;2023-06-04T08:41:08;22.20;89.20
4602;DHT22;2313;48.552;9.370;2023-06-04T08:43:36;22.30;85.50
4602;DHT22;2313;48.552;9.370;2023-06-04T08:46:05;22.40;87.80
4602;DHT22;2313;48.552;9.370;2023-06-04T08:48:34;22.70;88.10
4602;DHT22;2313;48.552;9.370;2023-06-04T08:51:02;23.10;84.80
4602;DHT22;2313;48.552;9.370;2023-06-04T08:53:29;23.20;84.30
4602;DHT22;2313;48.552;9.370;2023-06-04T08:55:55;23.40;84.70
4602;DHT22;2313;48.552;9.370;2023-06-04T08:58:22;23.40;82.40
4602;DHT22;2313;48.552;9.370;2023-06-04T09:00:48;23.80;80.80
4602;DHT22;2313;48.552;9.370;2023-06-04T09:03:15;23.80;79.10
4602;DHT22;2313;48.552;9.370;2023-06-04T09:05:41;24.00;79.60
4602;DHT22;2313;48.552;9.370;2023-06-04T09:08:14;24.30;81.40
4602;DHT22;2313;48.552;9.370;2023-06-04T09:10:44;24.60;78.20
4602;DHT22;2313;48.552;9.370;2023-06-04T09:13:10;24.60;76.60
4602;DHT22;2313;48.552;9.370;2023-06-04T09:15:36;24.70;76.90
4602;DHT22;2313;48.552;9.370;2023-06-04T09:18:02;24.90;76.20
4602;DHT22;2313;48.552;9.370;2023-06-04T09:20:28;25.10;76.30
4602;DHT22;2313;48.552;9.370;2023-06-04T09:22:53;25.30;73.80
4602;DHT22;2313;48.552;9.370;2023-06-04T09:25:23;25.60;73.40
4602;DHT22;2313;48.552;9.370;2023-06-04T09:27:51;25.80;72.20
4602;DHT22;2313;48.552;9.370;2023-06-04T09:30:17;25.90;70.20
4602;DHT22;2313;48.552;9.370;2023-06-04T09:32:43;26.20;70.30
4602;DHT22;2313;48.552;9.370;2023-06-04T09:35:18;26.40;69.10
4602;DHT22;2313;48.552;9.370;2023-06-04T09:37:56;26.30;68.20
4602;DHT22;2313;48.552;9.370;2023-06-04T09:40:23;26.20;67.70
4602;DHT22;2313;48.552;9.370;2023-06-04T09:42:50;26.40;66.50
4602;DHT22;2313;48.552;9.370;2023-06-04T09:45:33;26.60;66.40
4602;DHT22;2313;48.552;9.370;2023-06-04T09:48:00;26.70;66.70
4602;DHT22;2313;48.552;9.370;2023-06-04T09:52:53;27.00;64.20
4602;DHT22;2313;48.552;9.370;2023-06-04T09:55:19;27.30;65.30
4602;DHT22;2313;48.552;9.370;2023-06-04T09:57:52;27.40;64.50
4602;DHT22;2313;48.552;9.370;2023-06-04T10:00:20;27.70;64.10
4602;DHT22;2313;48.552;9.370;2023-06-04T10:02:46;27.60;65.00
4602;DHT22;2313;48.552;9.370;2023-06-04T10:05:14;27.60;64.00
4602;DHT22;2313;48.552;9.370;2023-06-04T10:07:43;27.70;62.90
4602;DHT22;2313;48.552;9.370;2023-06-04T10:10:16;27.90;62.20
4602;DHT22;2313;48.552;9.370;2023-06-04T10:12:43;28.00;63.40
4602;DHT22;2313;48.552;9.370;2023-06-04T10:15:12;28.20;59.50
4602;DHT22;2313;48.552;9.370;2023-06-04T10:17:38;28.10;60.00
4602;DHT22;2313;48.552;9.370;2023-06-04T10:20:05;28.20;59.10
4602;DHT22;2313;48.552;9.370;2023-06-04T10:22:31;28.50;59.10
4602;DHT22;2313;48.552;9.370;2023-06-04T10:25:01;28.70;59.00
4602;DHT22;2313;48.552;9.370;2023-06-04T10:27:30;29.00;58.40
4602;DHT22;2313;48.552;9.370;2023-06-04T10:29:57;29.10;57.00
4602;DHT22;2313;48.552;9.370;2023-06-04T10:32:27;29.20;57.00
4602;DHT22;2313;48.552;9.370;2023-06-04T10:34:53;29.00;57.60
4602;DHT22;2313;48.552;9.370;2023-06-04T10:37:23;28.40;54.70
4602;DHT22;2313;48.552;9.370;2023-06-04T10:39:53;27.40;56.90
4602;DHT22;2313;48.552;9.370;2023-06-04T10:42:19;27.60;58.50
4602;DHT22;2313;48.552;9.370;2023-06-04T10:44:48;27.90;57.50
4602;DHT22;2313;48.552;9.370;2023-06-04T10:47:26;28.40;56.10
4602;DHT22;2313;48.552;9.370;2023-06-04T10:49:55;28.80;56.50
4602;DHT22;2313;48.552;9.370;2023-06-04T10:52:23;28.80;54.80
4602;DHT22;2313;48.552;9.370;2023-06-04T10:54:49;28.70;55.80
4602;DHT22;2313;48.552;9.370;2023-06-04T10:57:18;28.40;55.70
4602;DHT22;2313;48.552;9.370;2023-06-04T10:59:56;28.50;57.80
4602;DHT22;2313;48.552;9.370;2023-06-04T11:02:22;28.50;56.00
4602;DHT22;2313;48.552;9.370;2023-06-04T11:05:02;28.10;55.90
4602;DHT22;2313;48.552;9.370;2023-06-04T11:07:44;28.10;58.40
4602;DHT22;2313;48.552;9.370;2023-06-04T11:10:11;28.10;57.70
4602;DHT22;2313;48.552;9.370;2023-06-04T11:12:46;28.10;56.80
4602;DHT22;2313;48.552;9.370;2023-06-04T11:15:14;28.10;55.90
4602;DHT22;2313;48.552;9.370;2023-06-04T11:17:50;27.60;55.40
4602;DHT22;2313;48.552;9.370;2023-06-04T11:20:17;27.20;57.10
4602;DHT22;2313;48.552;9.370;2023-06-04T11:22:53;26.80;55.20
4602;DHT22;2313;48.552;9.370;2023-06-04T11:25:19;26.70;57.80
4602;DHT22;2313;48.552;9.370;2023-06-04T11:27:48;26.90;56.50
4602;DHT22;2313;48.552;9.370;2023-06-04T11:30:14;27.00;57.20
4602;DHT22;2313;48.552;9.370;2023-06-04T11:32:40;26.60;55.30
4602;DHT22;2313;48.552;9.370;2023-06-04T11:35:06;26.20;57.10
4602;DHT22;2313;48.552;9.370;2023-06-04T11:37:32;26.40;56.50
4602;DHT22;2313;48.552;9.370;2023-06-04T11:39:59;26.50;56.00
4602;DHT22;2313;48.552;9.370;2023-06-04T11:42:27;26.70;57.20
4602;DHT22;2313;48.552;9.370;2023-06-04T11:44:59;26.90;57.00
4602;DHT22;2313;48.552;9.370;2023-06-04T11:47:25;27.00;56.60
4602;DHT22;2313;48.552;9.370;2023-06-04T11:49:57;27.00;59.20
4602;DHT22;2313;48.552;9.370;2023-06-04T11:52:23;27.20;56.30
4602;DHT22;2313;48.552;9.370;2023-06-04T11:54:49;27.30;57.50
4602;DHT22;2313;48.552;9.370;2023-06-04T11:57:15;27.30;55.10
4602;DHT22;2313;48.552;9.370;2023-06-04T11:59:41;27.40;56.10
4602;DHT22;2313;48.552;9.370;2023-06-04T12:02:07;27.30;55.10
4602;DHT22;2313;48.552;9.370;2023-06-04T12:04:33;27.20;54.60
4602;DHT22;2313;48.552;9.370;2023-06-04T12:07:01;27.20;54.10
4602;DHT22;2313;48.552;9.370;2023-06-04T12:09:32;27.10;55.20
4602;DHT22;2313;48.552;9.370;2023-06-04T12:12:00;27.00;56.30
4602;DHT22;2313;48.552;9.370;2023-06-04T12:14:26;27.10;55.20
4602;DHT22;2313;48.552;9.370;2023-06-04T12:17:06;27.30;55.60
4602;DHT22;2313;48.552;9.370;2023-06-04T12:19:32;27.20;56.00
4602;DHT22;2313;48.552;9.370;2023-06-04T12:22:07;27.10;54.70
4602;DHT22;2313;48.552;9.370;2023-06-04T12:24:50;27.00;53.90
4602;DHT22;2313;48.552;9.370;2023-06-04T12:27:20;26.90;55.60
4602;DHT22;2313;48.552;9.370;2023-06-04T12:32:22;27.10;53.70
4602;DHT22;2313;48.552;9.370;2023-06-04T12:34:48;27.30;53.10
4602;DHT22;2313;48.552;9.370;2023-06-04T12:37:13;27.30;52.50
4602;DHT22;2313;48.552;9.370;2023-06-04T12:39:39;27.30;53.30
4602;DHT22;2313;48.552;9.370;2023-06-04T12:42:06;27.40;54.40
4602;DHT22;2313;48.552;9.370;2023-06-04T12:44:32;27.10;54.70
4602;DHT22;2313;48.552;9.370;2023-06-04T12:46:58;27.10;53.80
4602;DHT22;2313;48.552;9.370;2023-06-04T12:49:24;27.20;55.70
4602;DHT22;2313;48.552;9.370;2023-06-04T12:51:49;27.20;54.90
4602;DHT22;2313;48.552;9.370;2023-06-04T12:54:15;27.00;53.20
4602;DHT22;2313;48.552;9.370;2023-06-04T12:56:41;27.00;52.80
4602;DHT22;2313;48.552;9.370;2023-06-04T12:59:07;27.10;54.10
4602;DHT22;2313;48.552;9.370;2023-06-04T13:01:32;27.00;54.40
4602;DHT22;2313;48.552;9.370;2023-06-04T13:03:58;27.10;54.10
4602;DHT22;2313;48.552;9.370;2023-06-04T13:06:24;27.10;53.40
4602;DHT22;2313;48.552;9.370;2023-06-04T13:08:49;27.10;51.70
4602;DHT22;2313;48.552;9.370;2023-06-04T13:11:15;27.10;53.10
4602;DHT22;2313;48.552;9.370;2023-06-04T13:13:41;26.90;53.10
4602;DHT22;2313;48.552;9.370;2023-06-04T13:16:08;26.50;53.90
4602;DHT22;2313;48.552;9.370;2023-06-04T13:18:34;26.50;53.70
4602;DHT22;2313;48.552;9.370;2023-06-04T13:20:59;26.70;54.90
4602;DHT22;2313;48.552;9.370;2023-06-04T13:23:25;26.60;54.00
4602;DHT22;2313;48.552;9.370;2023-06-04T13:25:51;26.40;53.50
4602;DHT22;2313;48.552;9.370;2023-06-04T13:28:16;26.30;52.50
4602;DHT22;2313;48.552;9.370;2023-06-04T13:30:43;26.40;52.70
4602;DHT22;2313;48.552;9.370;2023-06-04T13:33:09;26.50;52.20
4602;DHT22;2313;48.552;9.370;2023-06-04T13:35:35;26.60;51.60
4602;DHT22;2313;48.552;9.370;2023-06-04T13:38:03;26.60;51.30
4602;DHT22;2313;48.552;9.370;2023-06-04T13:40:29;26.70;50.00
4602;DHT22;2313;48.552;9.370;2023-06-04T13:42:55;26.70;48.50
4602;DHT22;2313;48.552;9.370;2023-06-04T13:45:21;26.80;50.30
4602;DHT22;2313;48.552;9.370;2023-06-04T13:47:49;26.90;52.20
4602;DHT22;2313;48.552;9.370;2023-06-04T13:50:15;26.90;53.70
4602;DHT22;2313;48.552;9.370;2023-06-04T13:52:41;26.80;53.00
4602;DHT22;2313;48.552;9.370;2023-06-04T13:55:07;26.80;53.80
4602;DHT22;2313;48.552;9.370;2023-06-04T13:57:33;27.00;53.40
4602;DHT22;2313;48.552;9.370;2023-06-04T13:59:58;27.00;51.60
4602;DHT22;2313;48.552;9.370;2023-06-04T14:02:24;26.90;51.40
4602;DHT22;2313;48.552;9.370;2023-06-04T14:04:50;26.90;52.90
4602;DHT22;2313;48.552;9.370;2023-06-04T14:07:16;27.00;51.70
4602;DHT22;2313;48.552;9.370;2023-06-04T14:09:42;27.00;52.70
4602;DHT22;2313;48.552;9.370;2023-06-04T14:12:08;26.90;53.70
4602;DHT22;2313;48.552;9.370;2023-06-04T14:14:34;26.80;51.30
4602;DHT22;2313;48.552;9.370;2023-06-04T14:17:03;26.90;52.70
4602;DHT22;2313;48.552;9.370;2023-06-04T14:19:29;26.80;51.90
4602;DHT22;2313;48.552;9.370;2023-06-04T14:21:55;26.80;51.80
4602;DHT22;2313;48.552;9.370;2023-06-04T14:24:20;26.90;51.40
4602;DHT22;2313;48.552;9.370;2023-06-04T14:26:46;26.80;51.40
4602;DHT22;2313;48.552;9.370;2023-06-04T14:29:12;26.80;53.20
4602;DHT22;2313;48.552;9.370;2023-06-04T14:31:38;26.70;51.40
4602;DHT22;2313;48.552;9.370;2023-06-04T14:34:04;26.70;50.80
4602;DHT22;2313;48.552;9.370;2023-06-04T14:36:30;26.70;48.90
4602;DHT22;2313;48.552;9.370;2023-06-04T14:38:56;26.60;48.70
4602;DHT22;2313;48.552;9.370;2023-06-04T14:41:22;26.60;49.40
4602;DHT22;2313;48.552;9.370;2023-06-04T14:43:47;26.50;49.10
4602;DHT22;2313;48.552;9.370;2023-06-04T14:46:13;26.50;49.90
4602;DHT22;2313;48.552;9.370;2023-06-04T14:48:39;26.40;49.10
4602;DHT22;2313;48.552;9.370;2023-06-04T14:51:04;26.40;50.70
4602;DHT22;2313;48.552;9.370;2023-06-04T14:53:30;26.40;50.70
4602;DHT22;2313;48.552;9.370;2023-06-04T14:55:55;26.50;50.60
4602;DHT22;2313;48.552;9.370;2023-06-04T14:58:21;26.60;49.80
4602;DHT22;2313;48.552;9.370;2023-06-04T15:00:47;26.50;48.80
4602;DHT22;2313;48.552;9.370;2023-06-04T15:03:12;26.40;49.00
4602;DHT22;2313;48.552;9.370;2023-06-04T15:05:38;26.30;49.30
4602;DHT22;2313;48.552;9.370;2023-06-04T15:08:04;26.30;48.80
4602;DHT22;2313;48.552;9.370;2023-06-04T15:10:30;26.20;50.00
4602;DHT22;2313;48.552;9.370;2023-06-04T15:12:56;26.20;49.40
4602;DHT22;2313;48.552;9.370;2023-06-04T15:15:22;26.20;49.60
4602;DHT22;2313;48.552;9.370;2023-06-04T15:17:49;26.20;48.40
4602;DHT22;2313;48.552;9.370;2023-06-04T15:20:15;26.10;48.60
4602;DHT22;2313;48.552;9.370;2023-06-04T15:22:41;26.10;49.00
4602;DHT22;2313;48.552;9.370;2023-06-04T15:25:06;26.10;49.00
4602;DHT22;2313;48.552;9.370;2023-06-04T15:27:32;26.00;49.30
4602;DHT22;2313;48.552;9.370;2023-06-04T15:29:58;25.90;49.20
4602;DHT22;2313;48.552;9.370;2023-06-04T15:32:24;25.70;49.10
4602;DHT22;2313;48.552;9.370;2023-06-04T15:34:50;25.60;50.60
4602;DHT22;2313;48.552;9.370;2023-06-04T15:37:15;25.40;49.90
4602;DHT22;2313;48.552;9.370;2023-06-04T15:39:41;25.40;50.20
4602;DHT22;2313;48.552;9.370;2023-06-04T15:42:07;25.40;48.80
4602;DHT22;2313;48.552;9.370;2023-06-04T15:44:33;25.40;49.80
4602;DHT22;2313;48.552;9.370;2023-06-04T15:46:59;25.40;48.80
4602;DHT22;2313;48.552;9.370;2023-06-04T15:49:25;25.20;49.20
4602;DHT22;2313;48.552;9.370;2023-06-04T15:51:51;25.20;50.20
4602;DHT22;2313;48.552;9.370;2023-06-04T15:54:16;25.20;49.30
4602;DHT22;2313;48.552;9.370;2023-06-04T15:56:42;25.10;50.30
4602;DHT22;2313;48.552;9.370;2023-06-04T15:59:07;24.90;50.30
4602;DHT22;2313;48.552;9.370;2023-06-04T16:01:33;24.90;49.60
4602;DHT22;2313;48.552;9.370;2023-06-04T16:03:59;24.80;49.50
4602;DHT22;2313;48.552;9.370;2023-06-04T16:06:24;24.70;49.70
4602;DHT22;2313;48.552;9.370;2023-06-04T16:08:50;24.70;49.50